Time;durP1;ratioP1;P1;durP2;ratioP2;P2;SDS_P1;SDS_P2;PMS_P1;PMS_P2;Temp;Humidity;BMP_temperature;BMP_pressure;BME280_temperature;BME280_humidity;BME280_pressure;Samples;Min_cycle;Max_cycle;Signal;HPM_P1;HPM_P2
2022/12/20 00:01:41;;;;;;;44.55;22.20;;;;;;;0.74;78.35;101208.84;6097525;23;20017;-75
2022/12/20 00:04:10;;;;;;;44.65;22.05;;;;;;;0.67;78.30;101220.69;6099696;23;20022;-76
2022/12/20 00:06:37;;;;;;;44.03;21.30;;;;;;;0.60;78.35;101216.69;6099618;23;20018;-76
2022/12/20 00:09:05;;;;;;;42.45;21.50;;;;;;;0.53;78.24;101216.16;6087600;23;20033;-76
2022/12/20 00:11:32;;;;;;;51.20;22.92;;;;;;;0.64;77.90;101207.66;6096126;23;20117;-75
2022/12/20 00:13:59;;;;;;;46.95;21.92;;;;;;;0.71;77.51;101211.66;6097634;23;20026;-76
2022/12/20 00:16:27;;;;;;;47.03;22.83;;;;;;;0.60;77.90;101211.41;6094550;23;20033;-76
2022/12/20 00:18:56;;;;;;;46.42;21.80;;;;;;;0.69;77.38;101203.84;6094953;23;20022;-76
2022/12/20 00:21:22;;;;;;;42.80;20.73;;;;;;;0.68;77.36;101206.56;6095656;23;20026;-76
2022/12/20 00:23:51;;;;;;;45.65;22.08;;;;;;;0.76;77.20;101207.00;6095711;23;20026;-76
2022/12/20 00:26:20;;;;;;;45.53;22.08;;;;;;;0.81;77.19;101212.84;6083065;23;20021;-75
2022/12/20 00:28:47;;;;;;;43.03;19.88;;;;;;;0.63;77.46;101206.81;6094151;23;20021;-76
2022/12/20 00:31:17;;;;;;;43.42;20.23;;;;;;;0.60;77.63;101201.69;6096416;23;20479;-76
2022/12/20 00:33:46;;;;;;;42.67;21.60;;;;;;;0.66;77.67;101180.25;6094929;23;20137;-76
2022/12/20 00:36:13;;;;;;;42.65;20.80;;;;;;;0.65;77.11;101177.69;6093765;23;20023;-76
2022/12/20 00:38:43;;;;;;;44.53;21.60;;;;;;;0.79;77.37;101174.28;6094664;23;20026;-76
2022/12/20 00:41:13;;;;;;;42.22;20.95;;;;;;;0.71;77.34;101180.84;6094978;23;20027;-76
2022/12/20 00:43:40;;;;;;;44.00;19.92;;;;;;;0.73;76.81;101186.88;6095415;23;20102;-76
2022/12/20 00:46:08;;;;;;;43.17;19.55;;;;;;;0.63;77.21;101185.69;6095196;23;20018;-76
2022/12/20 00:48:35;;;;;;;44.85;20.63;;;;;;;0.80;76.85;101186.53;6095039;23;20359;-76
2022/12/20 00:51:04;;;;;;;41.15;20.88;;;;;;;0.96;76.75;101182.97;6095115;23;20343;-76
2022/12/20 00:53:31;;;;;;;39.75;19.15;;;;;;;0.79;76.71;101190.97;6097847;23;20026;-75
2022/12/20 00:55:58;;;;;;;44.78;20.63;;;;;;;0.74;77.00;101185.94;6096564;23;20097;-75
2022/12/20 00:58:25;;;;;;;42.03;20.35;;;;;;;0.75;77.00;101181.53;6097378;23;20032;-75
2022/12/20 01:00:52;;;;;;;41.58;18.95;;;;;;;0.76;76.46;101192.00;6096939;23;20360;-75
2022/12/20 01:03:23;;;;;;;28.43;14.73;;;;;;;0.72;76.60;101184.34;6096464;23;20481;-75
2022/12/20 01:05:58;;;;;;;38.95;19.05;;;;;;;0.92;76.03;101186.72;6096974;23;20076;-75
2022/12/20 01:08:26;;;;;;;39.35;19.40;;;;;;;0.90;76.39;101171.88;6097239;23;20022;-76
2022/12/20 01:11:01;;;;;;;36.50;18.10;;;;;;;0.91;75.83;101185.00;6094059;23;20097;-75
2022/12/20 01:13:29;;;;;;;38.22;18.55;;;;;;;0.97;76.09;101186.44;6097447;23;20022;-75
2022/12/20 01:15:55;;;;;;;36.05;18.52;;;;;;;1.04;75.84;101186.97;6096071;23;20023;-75
2022/12/20 01:18:22;;;;;;;34.97;18.85;;;;;;;0.92;76.02;101181.44;6096998;23;20030;-75
2022/12/20 01:20:48;;;;;;;39.58;18.25;;;;;;;0.75;76.47;101184.19;6097775;23;20017;-75
2022/12/20 01:23:15;;;;;;;39.45;18.80;;;;;;;0.92;75.96;101186.72;6095296;23;20466;-75
2022/12/20 01:25:41;;;;;;;39.88;18.23;;;;;;;0.97;75.97;101184.66;6096507;23;20030;-74
2022/12/20 01:28:08;;;;;;;34.17;17.35;;;;;;;0.94;75.34;101190.09;6094626;23;20425;-74
2022/12/20 01:30:39;;;;;;;38.28;17.33;;;;;;;0.97;75.83;101179.38;6095199;23;20105;-74
2022/12/20 01:33:06;;;;;;;26.33;12.47;;;;;;;1.21;75.51;101177.13;6096565;23;20022;-74
2022/12/20 01:35:32;;;;;;;38.88;19.60;;;;;;;1.04;75.47;101176.38;6095939;23;20258;-74
2022/12/20 01:37:58;;;;;;;37.33;18.75;;;;;;;1.11;75.54;101169.81;6092619;23;20026;-74
2022/12/20 01:40:25;;;;;;;34.97;17.42;;;;;;;1.13;75.09;101181.16;6096326;23;20054;-74
2022/12/20 01:42:52;;;;;;;36.80;17.88;;;;;;;1.17;75.16;101175.59;6096484;23;20022;-74
2022/12/20 01:45:26;;;;;;;40.80;18.45;;;;;;;1.12;75.46;101168.84;6095738;23;20045;-73
2022/12/20 01:47:53;;;;;;;33.70;17.05;;;;;;;1.17;75.57;101164.19;6096060;23;20022;-74
2022/12/20 01:50:20;;;;;;;30.73;17.10;;;;;;;1.04;75.57;101157.88;6086426;23;20367;-73
2022/12/20 01:52:47;;;;;;;39.00;19.02;;;;;;;1.16;75.41;101165.09;6096675;23;20025;-73
2022/12/20 01:55:18;;;;;;;35.05;17.70;;;;;;;1.09;75.30;101161.97;6095565;23;20031;-74
2022/12/20 01:58:00;;;;;;;32.75;17.33;;;;;;;1.26;75.04;101163.63;6096822;23;20022;-73
2022/12/20 02:00:28;;;;;;;36.97;17.65;;;;;;;1.13;74.94;101162.66;6096478;23;20544;-72
2022/12/20 02:02:58;;;;;;;36.42;16.88;;;;;;;1.12;74.89;101158.28;6095699;23;20011;-72
2022/12/20 02:09:10;;;;;;;35.88;17.52;;;;;;;0.91;75.45;101160.38;6094386;23;20029;-74
2022/12/20 02:11:50;;;;;;;34.80;17.52;;;;;;;1.17;74.76;101157.09;6094528;23;20359;-74
2022/12/20 02:14:54;;;;;;;32.78;17.35;;;;;;;1.25;74.89;101161.94;6095089;23;20018;-74
2022/12/20 02:17:29;;;;;;;30.05;16.40;;;;;;;1.09;75.34;101153.19;6096021;23;20068;-74
2022/12/20 02:20:18;;;;;;;37.95;17.70;;;;;;;1.12;75.22;101160.94;6095098;23;20468;-73
2022/12/20 02:23:10;;;;;;;36.75;17.58;;;;;;;1.15;75.19;101150.19;6096724;23;20019;-74
2022/12/20 02:25:43;;;;;;;38.90;17.33;;;;;;;1.09;75.31;101153.19;6095396;23;20372;-73
2022/12/20 02:28:29;;;;;;;31.95;16.17;;;;;;;1.11;75.26;101149.50;6094923;23;20025;-73
2022/12/20 02:30:59;;;;;;;35.35;18.00;;;;;;;1.11;74.96;101148.66;6094791;23;20102;-73
2022/12/20 02:33:27;;;;;;;38.38;17.67;;;;;;;1.23;74.97;101155.91;6096200;23;20109;-73
2022/12/20 02:35:53;;;;;;;34.55;16.65;;;;;;;1.10;74.80;101155.75;6095274;23;20102;-73
2022/12/20 02:38:32;;;;;;;34.97;18.20;;;;;;;1.08;74.79;101147.03;6097577;23;20026;-73
2022/12/20 02:41:09;;;;;;;38.45;17.42;;;;;;;1.04;74.54;101149.97;6095282;23;20015;-73
2022/12/20 02:46:25;;;;;;;32.50;16.52;;;;;;;1.13;74.45;101136.22;6095513;23;20038;-75
2022/12/20 02:48:55;;;;;;;31.60;17.17;;;;;;;1.31;74.10;101129.00;6094911;23;20026;-75
2022/12/20 02:51:23;;;;;;;31.33;16.27;;;;;;;1.21;74.51;101126.91;6094030;23;20065;-74
2022/12/20 02:53:50;;;;;;;37.63;17.02;;;;;;;1.15;74.40;101124.59;6098648;23;20021;-74
2022/12/20 02:56:46;;;;;;;34.25;16.75;;;;;;;1.33;73.97;101122.66;6096828;23;20026;-73
2022/12/20 02:59:20;;;;;;;34.15;16.55;;;;;;;1.25;74.45;101125.78;6095225;23;20024;-74
2022/12/20 03:01:50;;;;;;;31.85;17.00;;;;;;;1.26;74.78;101116.03;6097525;23;20100;-74
2022/12/20 03:04:20;;;;;;;34.05;16.75;;;;;;;1.38;73.59;101109.19;6097189;23;20022;-73
2022/12/20 03:06:58;;;;;;;31.67;16.40;;;;;;;1.31;73.95;101095.50;6099847;23;20026;-73
2022/12/20 03:09:25;;;;;;;29.77;16.17;;;;;;;1.29;74.29;101089.44;6098241;23;20034;-72
2022/12/20 03:11:52;;;;;;;30.73;15.70;;;;;;;1.43;73.42;101097.38;6099965;23;20025;-73
2022/12/20 03:14:18;;;;;;;33.08;16.83;;;;;;;1.36;73.66;101111.06;6098635;23;20080;-73
2022/12/20 03:16:45;;;;;;;30.42;16.70;;;;;;;1.53;73.88;101113.56;6099646;23;20030;-73
2022/12/20 03:19:12;;;;;;;30.20;16.13;;;;;;;1.53;73.32;101107.44;6099092;23;20033;-73
2022/12/20 03:21:38;;;;;;;35.03;16.42;;;;;;;1.33;73.82;101098.88;6094852;23;20451;-73
2022/12/20 03:24:05;;;;;;;34.40;16.70;;;;;;;1.48;73.64;101089.19;6096158;23;20026;-74
2022/12/20 03:26:32;;;;;;;27.88;15.63;;;;;;;1.43;73.56;101092.09;6095733;23;20120;-74
2022/12/20 03:28:58;;;;;;;33.45;14.85;;;;;;;1.49;73.41;101104.13;6093771;23;20025;-74
2022/12/20 03:31:25;;;;;;;30.98;15.50;;;;;;;1.36;74.14;101109.28;6094772;23;20113;-73
2022/12/20 03:33:51;;;;;;;31.85;16.98;;;;;;;1.40;73.75;101102.88;6096454;23;20022;-74
2022/12/20 03:36:22;;;;;;;31.73;15.75;;;;;;;1.45;73.52;101106.09;6096505;23;20073;-74
2022/12/20 03:38:50;;;;;;;32.90;16.33;;;;;;;1.64;72.98;101102.34;6095243;23;20022;-74
2022/12/20 03:41:18;;;;;;;31.50;16.23;;;;;;;1.42;73.16;101114.22;6089516;23;20019;-74
2022/12/20 03:43:44;;;;;;;31.20;16.08;;;;;;;1.48;73.37;101119.13;6095061;23;20026;-74
2022/12/20 03:46:11;;;;;;;29.75;15.55;;;;;;;1.63;73.19;101127.09;6094659;23;20037;-74
2022/12/20 03:48:37;;;;;;;30.80;15.13;;;;;;;1.56;73.08;101117.81;6095907;23;20032;-73
2022/12/20 03:51:04;;;;;;;29.05;15.85;;;;;;;1.59;72.92;101130.84;6095132;23;20075;-73
2022/12/20 03:53:30;;;;;;;31.00;16.33;;;;;;;1.48;73.21;101105.06;6093116;23;20033;-74
2022/12/20 03:55:57;;;;;;;32.05;15.18;;;;;;;1.54;73.27;101106.47;6094796;23;20398;-73
2022/12/20 03:58:23;;;;;;;32.33;16.58;;;;;;;1.64;73.08;101095.25;6096044;23;20026;-74
2022/12/20 04:00:50;;;;;;;33.70;16.13;;;;;;;1.54;72.93;101104.66;6095170;23;20018;-74
2022/12/20 04:03:17;;;;;;;28.40;15.02;;;;;;;1.70;72.58;101109.91;6096027;23;20027;-74
2022/12/20 04:05:43;;;;;;;29.65;15.68;;;;;;;1.52;72.93;101116.31;6095522;23;20030;-73
2022/12/20 04:08:10;;;;;;;30.40;15.40;;;;;;;1.71;72.53;101108.94;6096553;23;20019;-74
2022/12/20 04:11:14;;;;;;;28.05;15.52;;;;;;;1.56;72.85;101113.38;6095701;23;20109;-73
2022/12/20 04:13:23;;;;;;;34.22;15.25;;;;;;;1.62;72.44;101117.47;6094764;23;20109;-73
2022/12/20 04:15:50;;;;;;;30.92;15.30;;;;;;;1.52;72.82;101119.78;6097369;23;20093;-73
2022/12/20 04:18:23;;;;;;;32.85;16.00;;;;;;;1.58;72.60;101114.16;6096392;23;20022;-74
2022/12/20 04:20:53;;;;;;;38.17;18.90;;;;;;;1.64;72.71;101116.41;6099331;23;20026;-73
2022/12/20 04:23:20;;;;;;;31.58;15.23;;;;;;;1.70;72.39;101101.97;6099308;23;20091;-73
2022/12/20 04:25:46;;;;;;;28.77;15.18;;;;;;;1.57;72.87;101088.63;6099091;23;20408;-74
2022/12/20 04:28:13;;;;;;;28.25;14.52;;;;;;;1.59;72.51;101083.25;6100011;23;20026;-74
2022/12/20 04:30:39;;;;;;;32.25;15.77;;;;;;;1.51;73.07;101090.78;6101221;23;20105;-74
2022/12/20 04:33:06;;;;;;;30.15;16.00;;;;;;;1.64;73.11;101095.25;6098883;23;20028;-74
2022/12/20 04:35:32;;;;;;;26.40;14.63;;;;;;;1.51;73.18;101096.97;6102952;23;20023;-73
2022/12/20 04:37:59;;;;;;;30.02;15.80;;;;;;;1.56;73.09;101101.97;6101007;23;20101;-73
2022/12/20 04:40:25;;;;;;;28.95;14.85;;;;;;;1.64;72.96;101089.09;6101387;23;20097;-73
2022/12/20 04:42:52;;;;;;;33.47;15.63;;;;;;;1.45;73.59;101098.16;6102480;23;20042;-74
2022/12/20 04:45:18;;;;;;;26.83;14.90;;;;;;;1.64;72.77;101078.53;6103468;23;20034;-74
2022/12/20 04:47:45;;;;;;;32.38;17.27;;;;;;;1.53;72.90;101080.97;6102479;23;20031;-74
2022/12/20 04:50:12;;;;;;;28.52;15.55;;;;;;;1.40;73.17;101080.88;6104373;23;20053;-74
2022/12/20 04:55:23;;;;;;;32.83;14.73;;;;;;;1.49;73.00;101085.59;6098868;23;20091;-74
2022/12/20 04:57:50;;;;;;;31.38;15.52;;;;;;;1.55;73.48;101087.88;6099835;23;20026;-73
2022/12/20 05:00:17;;;;;;;33.28;15.90;;;;;;;1.39;73.23;101093.22;6102935;23;20072;-73
2022/12/20 05:02:43;;;;;;;28.88;15.20;;;;;;;1.54;73.21;101078.22;6102682;23;20023;-74
2022/12/20 05:05:10;;;;;;;29.13;15.68;;;;;;;1.38;73.46;101091.53;6102066;23;20025;-74
2022/12/20 05:07:37;;;;;;;33.30;16.23;;;;;;;1.43;73.33;101085.97;6101308;23;20451;-73
2022/12/20 05:10:04;;;;;;;27.98;15.00;;;;;;;1.45;73.22;101084.94;6100418;23;20105;-73
2022/12/20 05:12:30;;;;;;;29.48;15.20;;;;;;;1.47;73.03;101084.84;6100883;23;20046;-72
2022/12/20 05:14:57;;;;;;;33.25;15.95;;;;;;;1.43;73.19;101084.16;6102821;23;20033;-74
2022/12/20 05:17:23;;;;;;;33.50;16.52;;;;;;;1.46;72.93;101091.91;6102167;23;20082;-74
2022/12/20 05:19:51;;;;;;;30.33;15.10;;;;;;;1.51;73.29;101090.78;6101519;23;20022;-74
2022/12/20 05:27:48;;;;;;;29.73;15.80;;;;;;;1.41;73.50;101066.72;6097028;23;20081;-74
2022/12/20 05:30:15;;;;;;;35.60;15.68;;;;;;;1.47;73.52;101071.63;6102657;23;20050;-74
2022/12/20 05:32:41;;;;;;;29.95;15.88;;;;;;;1.43;72.87;101065.66;6104241;23;20049;-73
2022/12/20 05:35:08;;;;;;;35.00;16.27;;;;;;;1.54;72.81;101058.88;6103123;23;20042;-75
2022/12/20 05:37:35;;;;;;;28.20;15.43;;;;;;;1.59;72.80;101070.88;6102480;23;20068;-73
2022/12/20 05:40:03;;;;;;;29.60;15.40;;;;;;;1.55;72.95;101074.66;6103318;23;20018;-72
2022/12/20 05:42:29;;;;;;;32.80;15.40;;;;;;;1.71;72.58;101069.28;6102307;23;20033;-73
2022/12/20 05:44:56;;;;;;;32.40;15.93;;;;;;;1.65;72.81;101061.75;6103892;23;20113;-74
2022/12/20 05:47:23;;;;;;;27.40;15.18;;;;;;;1.72;72.78;101061.25;6100724;23;20054;-73
2022/12/20 05:49:50;;;;;;;29.50;15.57;;;;;;;1.82;72.42;101056.25;6102727;23;20027;-73
2022/12/20 05:52:16;;;;;;;31.48;16.25;;;;;;;1.77;72.63;101065.41;6101180;23;20093;-73
2022/12/20 05:54:43;;;;;;;29.80;15.68;;;;;;;1.80;72.70;101062.56;6103684;23;20037;-73
2022/12/20 05:57:09;;;;;;;28.13;16.05;;;;;;;1.78;73.09;101062.66;6102567;23;20038;-73
2022/12/20 05:59:36;;;;;;;37.30;16.55;;;;;;;1.79;72.91;101055.59;6104090;23;20026;-73
2022/12/20 06:02:02;;;;;;;28.13;15.98;;;;;;;1.87;72.84;101059.44;6103902;23;20048;-73
2022/12/20 06:04:30;;;;;;;34.47;16.52;;;;;;;1.71;73.35;101059.56;6105481;23;20360;-73
2022/12/20 06:06:58;;;;;;;29.73;15.35;;;;;;;1.90;72.90;101048.69;6100516;23;20022;-73
2022/12/20 06:09:25;;;;;;;30.35;16.02;;;;;;;1.93;73.08;101059.09;6101928;23;20018;-74
2022/12/20 06:11:52;;;;;;;31.00;17.55;;;;;;;1.82;73.33;101066.84;6102651;23;20027;-74
2022/12/20 06:14:18;;;;;;;31.67;15.82;;;;;;;1.98;72.76;101060.59;6099661;23;20109;-74
2022/12/20 06:16:45;;;;;;;37.33;15.95;;;;;;;1.91;73.46;101079.47;6100053;23;20531;-73
2022/12/20 06:19:13;;;;;;;31.75;15.75;;;;;;;1.76;73.97;101080.44;6092618;23;20026;-73
2022/12/20 06:21:46;;;;;;;30.77;16.90;;;;;;;1.89;73.82;101084.03;6101659;23;20090;-73
2022/12/20 06:24:13;;;;;;;28.25;15.80;;;;;;;1.81;73.98;101082.78;6100400;23;20045;-73
2022/12/20 06:26:40;;;;;;;30.67;16.58;;;;;;;2.14;74.06;101091.31;6099373;23;20495;-74
2022/12/20 06:29:09;;;;;;;32.80;16.23;;;;;;;2.01;74.04;101087.72;6100760;23;20407;-72
2022/12/20 06:31:35;;;;;;;33.60;16.15;;;;;;;2.01;74.19;101082.44;6100582;23;20106;-73
2022/12/20 06:34:01;;;;;;;28.92;16.85;;;;;;;2.12;74.20;101069.38;6099280;23;20023;-73
2022/12/20 06:36:28;;;;;;;33.80;17.75;;;;;;;1.97;75.03;101069.50;6102389;23;20448;-73
2022/12/20 06:38:54;;;;;;;33.97;16.02;;;;;;;1.87;75.73;101077.13;6101573;23;20038;-73
2022/12/20 06:41:21;;;;;;;30.70;16.13;;;;;;;1.93;75.75;101084.72;6100516;23;20083;-76
2022/12/20 06:43:48;;;;;;;30.35;17.75;;;;;;;2.07;75.80;101073.28;6089541;23;20089;-76
2022/12/20 06:46:14;;;;;;;33.05;18.23;;;;;;;2.05;75.75;101080.44;6099464;23;20098;-76
2022/12/20 06:48:41;;;;;;;36.08;17.90;;;;;;;2.18;75.80;101089.31;6101062;23;20083;-76
2022/12/20 06:51:07;;;;;;;39.00;18.92;;;;;;;2.18;75.54;101090.16;6101622;23;20027;-76
2022/12/20 06:53:34;;;;;;;40.13;18.23;;;;;;;2.16;76.07;101088.53;6100558;23;20026;-77
2022/12/20 06:56:00;;;;;;;32.20;17.55;;;;;;;2.15;75.57;101093.00;6102792;23;20078;-75
2022/12/20 06:58:27;;;;;;;37.13;17.67;;;;;;;2.22;76.03;101089.97;6105219;23;20018;-76
2022/12/20 07:00:54;;;;;;;32.65;18.00;;;;;;;2.20;76.46;101092.72;6102795;23;20050;-76
2022/12/20 07:03:20;;;;;;;37.45;18.15;;;;;;;2.09;76.64;101084.59;6094062;23;20061;-76
2022/12/20 07:05:52;;;;;;;40.40;19.25;;;;;;;2.14;76.76;101087.81;6101091;23;20019;-76
2022/12/20 07:08:20;;;;;;;37.03;19.75;;;;;;;2.19;77.20;101083.06;6105250;23;20026;-76
2022/12/20 07:10:47;;;;;;;33.72;17.77;;;;;;;2.25;76.80;101081.84;6114442;23;20058;-76
2022/12/20 07:13:13;;;;;;;40.17;19.90;;;;;;;2.17;76.91;101093.75;6118388;23;20018;-76
2022/12/20 07:15:40;;;;;;;37.28;19.05;;;;;;;2.11;77.02;101093.28;6119308;23;20091;-76
2022/12/20 07:18:06;;;;;;;38.33;19.95;;;;;;;2.33;77.14;101085.69;6118618;23;20010;-74
2022/12/20 07:20:33;;;;;;;37.30;19.42;;;;;;;2.33;76.56;101087.47;6096165;23;20007;-75
2022/12/20 07:23:00;;;;;;;36.88;18.90;;;;;;;2.16;77.09;101093.84;6118693;23;20017;-75
2022/12/20 07:25:27;;;;;;;36.45;18.15;;;;;;;2.16;77.15;101089.41;6119240;23;20010;-74
2022/12/20 07:27:53;;;;;;;38.08;19.90;;;;;;;2.35;77.30;101097.03;6118703;23;20013;-76
2022/12/20 07:30:20;;;;;;;38.67;19.42;;;;;;;2.28;77.04;101106.31;6120418;23;20026;-75
2022/12/20 07:32:47;;;;;;;36.28;18.77;;;;;;;2.41;77.62;101101.94;6120211;23;20038;-76
2022/12/20 07:35:14;;;;;;;37.08;18.23;;;;;;;2.32;77.60;101099.88;6119597;23;20002;-75
2022/12/20 07:37:41;;;;;;;43.47;19.25;;;;;;;2.29;78.31;101102.72;6120604;23;20022;-74
2022/12/20 07:40:10;;;;;;;40.83;19.30;;;;;;;2.30;78.25;101103.56;6118903;23;20061;-75
2022/12/20 07:42:36;;;;;;;38.95;19.80;;;;;;;2.30;78.12;101101.75;6144739;23;20053;-75
2022/12/20 07:47:46;;;;;;;37.50;19.25;;;;;;;2.43;78.19;101109.78;6207769;23;20040;-75
2022/12/20 07:50:13;;;;;;;44.92;21.25;;;;;;;2.32;78.98;101113.09;6184097;23;20032;-74
2022/12/20 07:58:03;;;;;;;41.83;21.27;;;;;;;2.61;78.42;101115.69;6177119;23;20029;-75
2022/12/20 08:00:30;;;;;;;40.50;22.83;;;;;;;2.39;78.99;101119.72;6206905;23;20032;-75
2022/12/20 08:03:09;;;;;;;49.42;22.00;;;;;;;2.52;79.05;101118.94;6205185;23;20077;-74
2022/12/20 08:05:39;;;;;;;44.65;22.90;;;;;;;2.52;79.08;101111.84;6205797;23;20016;-74
2022/12/20 08:08:07;;;;;;;45.10;24.02;;;;;;;2.48;79.49;101113.00;6207051;23;20025;-74
2022/12/20 08:10:37;;;;;;;46.13;22.45;;;;;;;2.56;79.47;101120.44;6201551;23;20025;-75
2022/12/20 08:13:05;;;;;;;42.78;22.55;;;;;;;2.40;80.01;101121.41;6201398;23;20025;-74
2022/12/20 08:15:33;;;;;;;41.85;21.65;;;;;;;2.46;80.50;101112.22;6207365;23;20036;-75
2022/12/20 08:18:00;;;;;;;51.30;23.17;;;;;;;2.42;80.08;101119.53;6205993;23;20032;-75
2022/12/20 08:20:27;;;;;;;44.40;23.67;;;;;;;2.41;81.02;101115.19;6206104;23;20021;-74
2022/12/20 08:22:54;;;;;;;48.55;24.80;;;;;;;2.44;80.61;101111.47;6204487;23;20021;-75
2022/12/20 08:25:21;;;;;;;47.90;24.20;;;;;;;2.45;80.68;101112.34;6201071;23;20028;-75
2022/12/20 08:27:48;;;;;;;59.20;25.48;;;;;;;2.49;80.83;101111.19;6197550;23;20027;-75
2022/12/20 08:30:15;;;;;;;49.30;24.15;;;;;;;2.44;81.13;101111.47;6195508;23;20107;-75
2022/12/20 08:32:42;;;;;;;56.20;24.65;;;;;;;2.52;80.89;101103.91;6193993;23;20024;-72
2022/12/20 08:35:09;;;;;;;46.40;22.73;;;;;;;2.50;80.79;101097.00;6191141;23;20021;-76
2022/12/20 08:37:36;;;;;;;48.35;25.27;;;;;;;2.53;80.95;101094.16;6150418;23;20017;-75
2022/12/20 08:40:03;;;;;;;45.88;24.33;;;;;;;2.65;81.21;101090.69;6186789;23;20033;-76
2022/12/20 08:42:30;;;;;;;51.72;24.42;;;;;;;2.56;80.67;101084.22;6188515;23;20025;-76
2022/12/20 08:44:56;;;;;;;48.22;24.35;;;;;;;2.50;80.67;101086.41;6189247;23;20016;-76
2022/12/20 08:47:23;;;;;;;41.10;23.50;;;;;;;2.66;80.81;101087.13;6188291;23;20053;-76
2022/12/20 08:49:49;;;;;;;46.60;25.45;;;;;;;2.75;80.21;101096.25;6174612;23;20040;-75
2022/12/20 08:52:16;;;;;;;50.60;24.95;;;;;;;2.69;80.58;101097.50;6187607;23;20025;-76
2022/12/20 08:54:43;;;;;;;44.28;24.92;;;;;;;2.87;80.58;101106.06;6186670;23;20385;-75
2022/12/20 08:57:09;;;;;;;48.95;23.98;;;;;;;2.79;80.93;101101.25;6188011;23;20021;-75
2022/12/20 08:59:36;;;;;;;43.97;23.33;;;;;;;2.70;80.45;101098.34;6186090;23;20042;-75
2022/12/20 09:02:02;;;;;;;53.03;25.40;;;;;;;2.88;80.79;101094.50;6186722;23;20033;-76
2022/12/20 09:04:29;;;;;;;54.03;24.80;;;;;;;2.81;80.95;101086.09;6185973;23;20025;-76
2022/12/20 09:06:56;;;;;;;60.20;25.05;;;;;;;2.93;80.82;101083.56;6185961;23;20331;-76
2022/12/20 09:09:22;;;;;;;46.97;24.80;;;;;;;2.94;80.86;101080.00;6186470;23;20049;-76
2022/12/20 09:11:49;;;;;;;43.55;23.08;;;;;;;2.97;80.91;101078.00;6183505;23;20093;-76
2022/12/20 09:14:17;;;;;;;44.38;23.30;;;;;;;2.97;80.49;101078.00;6184451;23;20017;-75
2022/12/20 09:16:43;;;;;;;47.55;23.30;;;;;;;3.06;80.40;101079.16;6186518;23;20040;-76
2022/12/20 09:19:12;;;;;;;44.92;22.77;;;;;;;3.13;80.12;101083.09;6183203;23;20349;-77
2022/12/20 09:21:39;;;;;;;48.05;23.85;;;;;;;3.26;79.83;101077.81;6184115;23;20047;-76
2022/12/20 09:24:07;;;;;;;46.53;22.50;;;;;;;3.30;79.79;101076.66;6183990;23;20029;-76
2022/12/20 09:26:34;;;;;;;43.47;22.40;;;;;;;3.21;79.92;101080.81;6183695;23;20017;-76
2022/12/20 09:29:01;;;;;;;41.47;22.65;;;;;;;3.23;80.26;101078.03;6182436;23;20040;-76
2022/12/20 09:31:31;;;;;;;42.28;21.88;;;;;;;3.23;80.17;101089.47;6170317;23;20080;-77
2022/12/20 09:33:59;;;;;;;48.30;21.60;;;;;;;3.44;79.47;101076.56;6182770;23;20039;-76
2022/12/20 09:36:27;;;;;;;39.72;22.20;;;;;;;3.44;79.16;101067.75;6183567;23;20153;-77
2022/12/20 09:38:55;;;;;;;44.72;20.67;;;;;;;3.46;79.61;101073.81;6182169;23;20079;-76
2022/12/20 09:41:28;;;;;;;40.38;21.50;;;;;;;3.54;78.76;101072.31;6182470;23;20044;-76
2022/12/20 09:43:56;;;;;;;40.97;19.90;;;;;;;3.80;78.49;101075.81;6182155;23;20025;-76
2022/12/20 09:46:24;;;;;;;38.22;19.95;;;;;;;4.03;77.78;101066.22;6183692;23;20421;-76
2022/12/20 09:48:52;;;;;;;39.47;20.50;;;;;;;3.74;77.99;101070.94;6175615;23;20037;-77
2022/12/20 09:51:33;;;;;;;35.33;18.52;;;;;;;3.97;77.02;101058.72;6182431;23;20105;-76
2022/12/20 09:54:21;;;;;;;38.15;19.27;;;;;;;3.83;77.21;101064.16;6184274;23;20328;-77
2022/12/20 09:57:06;;;;;;;36.08;18.73;;;;;;;4.05;77.01;101063.47;6182969;23;20450;-76
2022/12/20 09:59:36;;;;;;;33.47;17.58;;;;;;;4.18;76.36;101066.94;6183279;23;20031;-76
2022/12/20 10:02:11;;;;;;;31.10;17.92;;;;;;;4.15;76.34;101072.47;6183990;23;20017;-75
2022/12/20 10:04:58;;;;;;;36.42;17.50;;;;;;;4.58;74.98;101075.53;6181995;23;20079;-75
2022/12/20 10:07:40;;;;;;;28.63;15.98;;;;;;;4.44;75.08;101066.88;6183673;23;20025;-77
2022/12/20 10:10:34;;;;;;;30.95;17.38;;;;;;;4.54;74.98;101068.75;6183391;23;20045;-76
2022/12/20 10:13:28;;;;;;;28.15;15.63;;;;;;;4.32;74.67;101072.09;6183848;23;20028;-76
2022/12/20 10:16:46;;;;;;;28.38;15.77;;;;;;;4.22;75.19;101068.41;6182663;23;20017;-76
2022/12/20 10:19:37;;;;;;;30.50;16.63;;;;;;;4.08;75.66;101081.84;6118066;23;20013;-76
2022/12/20 10:22:20;;;;;;;29.58;16.17;;;;;;;4.07;75.59;101077.47;6183310;23;20021;-75
2022/12/20 10:25:25;;;;;;;27.00;15.27;;;;;;;4.10;75.86;101067.50;6182436;23;20024;-77
2022/12/20 10:27:55;;;;;;;30.13;15.77;;;;;;;4.25;75.47;101060.22;6148388;23;20021;-76
2022/12/20 10:30:25;;;;;;;30.48;16.38;;;;;;;4.39;75.01;101061.06;6181400;23;20060;-76
2022/12/20 10:32:55;;;;;;;45.47;18.10;;;;;;;4.47;75.24;101042.75;6183052;23;20017;-75
2022/12/20 10:35:26;;;;;;;29.60;16.17;;;;;;;4.41;74.58;101035.22;6182386;23;20021;-77
2022/12/20 10:38:03;;;;;;;30.05;16.58;;;;;;;4.33;75.18;101033.94;6183466;23;20092;-77
2022/12/20 10:40:38;;;;;;;;;;;;;;;4.66;74.73;101023.63;6184272;23;20053;-77
2022/12/20 10:43:26;;;;;;;32.50;15.73;;;;;;;4.64;74.54;101010.47;6184081;23;20329;-76
2022/12/20 10:46:04;;;;;;;31.02;15.02;;;;;;;4.69;73.96;101013.63;6186804;23;20025;-76
2022/12/20 10:48:37;;;;;;;34.08;16.10;;;;;;;4.69;73.73;101010.97;6185323;23;20104;-76
2022/12/20 10:51:11;;;;;;;32.38;14.38;;;;;;;4.82;72.93;101006.41;6185429;23;20349;-76
2022/12/20 10:53:55;;;;;;;25.33;14.35;;;;;;;4.95;73.38;101002.84;6185084;23;20017;-76
2022/12/20 10:56:27;;;;;;;29.30;15.68;;;;;;;4.77;73.32;100999.78;6183455;23;20029;-77
2022/12/20 10:58:59;;;;;;;26.23;14.90;;;;;;;5.08;72.16;100986.81;6185298;23;20032;-76
2022/12/20 11:01:30;;;;;;;29.50;15.02;;;;;;;5.02;72.57;100982.78;6180813;23;20156;-76
2022/12/20 11:04:01;;;;;;;30.60;14.93;;;;;;;4.88;72.65;100975.88;6185462;23;20024;-76
2022/12/20 11:06:42;;;;;;;26.35;14.05;;;;;;;4.84;72.29;100978.91;6187596;23;20025;-76
2022/12/20 11:09:28;;;;;;;28.25;14.85;;;;;;;4.93;72.76;100972.84;6188450;23;20025;-76
2022/12/20 11:12:11;;;;;;;28.27;13.85;;;;;;;4.98;72.63;100968.88;6187976;23;20080;-76
2022/12/20 11:14:39;;;;;;;27.65;15.32;;;;;;;4.82;73.06;100966.53;6186257;23;20017;-76
2022/12/20 11:17:22;;;;;;;26.92;14.90;;;;;;;4.73;73.39;100939.84;6161849;23;20406;-78
2022/12/20 11:20:25;;;;;;;32.60;14.40;;;;;;;4.66;73.54;100954.53;6189179;23;20013;-77
2022/12/20 11:23:04;;;;;;;26.88;15.32;;;;;;;4.68;73.21;100952.63;6150417;23;20045;-77
2022/12/20 11:26:01;;;;;;;28.60;14.68;;;;;;;4.86;73.35;100950.38;6184598;23;20021;-77
2022/12/20 11:29:15;;;;;;;26.55;13.85;;;;;;;4.69;73.54;100939.19;6181865;23;20092;-76
2022/12/20 11:31:50;;;;;;;28.05;14.55;;;;;;;4.61;72.95;100943.41;6180452;23;20021;-76
2022/12/20 11:34:53;;;;;;;31.95;15.35;;;;;;;4.73;73.18;100934.53;6182719;23;20084;-77
2022/12/20 11:37:24;;;;;;;28.35;14.38;;;;;;;4.70;73.21;100935.59;6181301;23;20052;-76
2022/12/20 11:39:54;;;;;;;25.70;14.88;;;;;;;4.93;72.77;100931.16;6181966;23;20020;-76
2022/12/20 11:42:28;;;;;;;26.88;13.73;;;;;;;4.91;72.28;100932.25;6181707;23;20052;-76
2022/12/20 11:45:12;;;;;;;29.92;15.02;;;;;;;4.71;72.41;100924.00;6180730;23;20017;-76
2022/12/20 11:47:48;;;;;;;31.30;15.00;;;;;;;5.04;72.00;100925.88;6179654;23;20396;-77
2022/12/20 11:50:43;;;;;;;26.73;13.60;;;;;;;4.89;72.33;100918.22;6180881;23;20084;-76
2022/12/20 11:53:26;;;;;;;25.98;13.82;;;;;;;4.88;72.34;100913.88;6180555;23;20071;-76
2022/12/20 11:55:58;;;;;;;31.10;14.45;;;;;;;4.86;72.25;100929.09;6182015;23;20071;-76